Time;durP1;ratioP1;P1;durP2;ratioP2;P2;SDS_P1;SDS_P2;PMS_P1;PMS_P2;Temp;Humidity;BMP_temperature;BMP_pressure;BME280_temperature;BME280_humidity;BME280_pressure;Samples;Min_cycle;Max_cycle;Signal;HPM_P1;HPM_P2
2022/09/19 00:00:24;;;;;;;;;3.00;3.00;;;;;;;;5078041;27;51195;-57
2022/09/19 00:02:49;;;;;;;;;4.25;3.00;;;;;;;;5077560;27;51209;-56
2022/09/19 00:05:15;;;;;;;;;4.00;4.00;;;;;;;;5081549;27;52100;-57
2022/09/19 00:07:40;;;;;;;;;4.00;4.00;;;;;;;;5080881;27;52175;-57
2022/09/19 00:10:06;;;;;;;;;3.50;3.50;;;;;;;;5090575;27;51185;-58
2022/09/19 00:12:31;;;;;;;;;4.00;4.00;;;;;;;;5089512;27;51514;-56
2022/09/19 00:14:57;;;;;;;;;4.00;4.00;;;;;;;;5076970;27;51188;-58
2022/09/19 00:17:22;;;;;;;;;3.50;3.50;;;;;;;;5078774;27;51972;-58
2022/09/19 00:19:47;;;;;;;;;6.00;6.00;;;;;;;;5072955;27;50927;-57
2022/09/19 00:22:12;;;;;;;;;3.00;3.00;;;;;;;;5076375;27;51324;-58
2022/09/19 00:24:48;;;;;;;;;3.00;3.00;;;;;;;;5081461;27;51210;-58
2022/09/19 00:27:15;;;;;;;;;3.00;3.00;;;;;;;;5081388;27;52809;-57
2022/09/19 00:29:43;;;;;;;;;6.00;4.00;;;;;;;;5078378;27;52252;-57
2022/09/19 00:32:12;;;;;;;;;4.00;4.00;;;;;;;;5079284;27;51205;-58
2022/09/19 00:34:48;;;;;;;;;5.00;4.00;;;;;;;;5078711;27;52295;-58
2022/09/19 00:37:14;;;;;;;;;4.00;4.00;;;;;;;;5074380;27;51661;-58
2022/09/19 00:39:39;;;;;;;;;4.00;4.00;;;;;;;;5072350;27;51187;-57
2022/09/19 00:42:05;;;;;;;;;4.50;3.75;;;;;;;;5073234;27;51150;-58
2022/09/19 00:44:30;;;;;;;;;5.50;4.75;;;;;;;;5072621;27;51139;-58
2022/09/19 00:47:07;;;;;;;;;5.75;5.75;;;;;;;;5094448;27;52631;-57
2022/09/19 00:49:37;;;;;;;;;5.75;4.00;;;;;;;;5084596;27;51181;-58
2022/09/19 00:52:03;;;;;;;;;5.00;4.50;;;;;;;;5074576;27;52797;-57
2022/09/19 00:54:31;;;;;;;;;5.50;4.50;;;;;;;;5081078;27;51401;-58
2022/09/19 00:56:57;;;;;;;;;4.75;4.75;;;;;;;;5073368;27;51000;-58
2022/09/19 00:59:26;;;;;;;;;4.75;4.75;;;;;;;;5081816;27;51123;-58
2022/09/19 01:01:53;;;;;;;;;5.00;5.00;;;;;;;;5072011;27;51178;-56
2022/09/19 01:04:20;;;;;;;;;4.00;4.00;;;;;;;;5076899;27;50882;-57
2022/09/19 01:06:53;;;;;;;;;5.00;4.25;;;;;;;;5078938;27;51718;-56
2022/09/19 01:09:18;;;;;;;;;6.00;4.00;;;;;;;;5072208;27;52209;-57
2022/09/19 01:11:57;;;;;;;;;4.00;4.00;;;;;;;;5073442;27;51046;-57
2022/09/19 01:14:41;;;;;;;;;3.75;3.75;;;;;;;;5081783;27;50965;-56
2022/09/19 01:17:12;;;;;;;;;4.25;4.25;;;;;;;;5083824;27;51114;-57
2022/09/19 01:20:06;;;;;;;;;6.00;4.25;;;;;;;;5075703;27;51070;-57
2022/09/19 01:22:43;;;;;;;;;4.75;4.75;;;;;;;;5089621;27;50893;-58
2022/09/19 01:25:20;;;;;;;;;4.25;4.25;;;;;;;;5075167;27;51634;-57
2022/09/19 01:27:59;;;;;;;;;5.00;5.00;;;;;;;;5071764;27;51181;-57
2022/09/19 01:30:25;;;;;;;;;4.75;4.00;;;;;;;;5071859;27;50942;-57
2022/09/19 01:32:57;;;;;;;;;4.50;4.50;;;;;;;;5073097;27;51152;-57
2022/09/19 01:35:25;;;;;;;;;4.00;3.25;;;;;;;;5074002;27;51350;-57
2022/09/19 01:38:00;;;;;;;;;4.75;4.75;;;;;;;;5072384;27;51071;-57
2022/09/19 01:40:25;;;;;;;;;5.00;4.50;;;;;;;;5072648;27;50947;-57
2022/09/19 01:42:55;;;;;;;;;4.75;3.75;;;;;;;;5073774;27;50879;-57
2022/09/19 01:45:26;;;;;;;;;5.00;4.00;;;;;;;;5070617;27;51716;-57
2022/09/19 01:47:52;;;;;;;;;5.00;5.00;;;;;;;;5072322;27;53541;-57
2022/09/19 01:50:25;;;;;;;;;2.33;2.33;;;;;;;;5073638;27;51020;-57
2022/09/19 01:53:02;;;;;;;;;4.00;4.00;;;;;;;;5076012;27;51014;-57
2022/09/19 01:56:06;;;;;;;;;3.75;3.75;;;;;;;;5079880;27;51172;-57
2022/09/19 01:58:31;;;;;;;;;4.00;3.50;;;;;;;;5045294;28;51365;-57
2022/09/19 02:01:02;;;;;;;;;3.00;3.00;;;;;;;;5049143;28;51060;-58
2022/09/19 02:03:49;;;;;;;;;5.00;4.00;;;;;;;;5060947;27;51162;-57
2022/09/19 02:06:14;;;;;;;;;2.75;2.75;;;;;;;;5072405;27;51352;-57
2022/09/19 02:08:39;;;;;;;;;6.00;4.00;;;;;;;;5071731;27;52137;-54
2022/09/19 02:11:11;;;;;;;;;5.00;4.75;;;;;;;;5073130;27;50865;-57
2022/09/19 02:13:40;;;;;;;;;6.75;5.25;;;;;;;;5081308;27;51108;-57
2022/09/19 02:16:09;;;;;;;;;5.25;4.75;;;;;;;;5074162;27;51388;-58
2022/09/19 02:18:38;;;;;;;;;6.00;5.00;;;;;;;;5071641;27;51070;-56
2022/09/19 02:21:07;;;;;;;;;5.00;5.00;;;;;;;;5072268;27;51032;-57
2022/09/19 02:23:36;;;;;;;;;4.00;4.00;;;;;;;;5073445;27;53700;-55
2022/09/19 02:26:05;;;;;;;;;4.25;4.00;;;;;;;;5074844;27;51293;-58
2022/09/19 02:28:34;;;;;;;;;6.00;5.00;;;;;;;;5071842;27;52037;-56
2022/09/19 02:30:59;;;;;;;;;3.00;3.00;;;;;;;;5070381;27;51230;-56
2022/09/19 02:33:26;;;;;;;;;3.00;3.00;;;;;;;;5073137;27;51085;-56
2022/09/19 02:36:18;;;;;;;;;2.75;2.75;;;;;;;;5072645;27;51337;-56
2022/09/19 02:38:52;;;;;;;;;3.00;3.00;;;;;;;;5070761;27;52047;-57
2022/09/19 02:41:30;;;;;;;;;5.00;4.00;;;;;;;;5072404;27;51053;-58
2022/09/19 02:44:19;;;;;;;;;2.75;2.75;;;;;;;;5073566;27;51119;-58
2022/09/19 02:46:54;;;;;;;;;3.25;3.25;;;;;;;;5071843;27;51182;-55
2022/09/19 02:49:28;;;;;;;;;2.00;2.00;;;;;;;;5080884;27;52266;-57
2022/09/19 02:51:55;;;;;;;;;2.75;2.00;;;;;;;;5079693;27;50984;-57
2022/09/19 02:54:26;;;;;;;;;3.50;3.50;;;;;;;;5076621;27;50997;-57
2022/09/19 02:56:54;;;;;;;;;4.50;3.00;;;;;;;;5071854;27;51096;-57
2022/09/19 02:59:23;;;;;;;;;2.25;2.25;;;;;;;;5080936;27;51931;-57
2022/09/19 03:01:51;;;;;;;;;4.25;3.00;;;;;;;;5090569;27;50932;-56
2022/09/19 03:04:20;;;;;;;;;3.50;3.50;;;;;;;;5078095;27;51193;-56
2022/09/19 03:06:45;;;;;;;;;4.25;4.00;;;;;;;;5073848;27;51177;-57
2022/09/19 03:09:13;;;;;;;;;3.50;3.25;;;;;;;;5070338;27;51232;-56
2022/09/19 03:11:40;;;;;;;;;3.00;3.00;;;;;;;;5072344;28;50861;-57
2022/09/19 03:14:06;;;;;;;;;3.00;3.00;;;;;;;;5074069;27;51155;-58
2022/09/19 03:16:34;;;;;;;;;3.00;3.00;;;;;;;;5078488;27;51102;-57
2022/09/19 03:19:01;;;;;;;;;4.50;4.50;;;;;;;;5074579;27;53954;-58
2022/09/19 03:21:26;;;;;;;;;5.50;4.00;;;;;;;;5079870;27;51240;-57
2022/09/19 03:23:56;;;;;;;;;2.00;2.00;;;;;;;;5069113;27;51464;-56
2022/09/19 03:26:22;;;;;;;;;3.75;3.75;;;;;;;;5074135;27;51145;-57
2022/09/19 03:28:47;;;;;;;;;5.00;4.25;;;;;;;;5077302;27;53075;-57
2022/09/19 03:31:13;;;;;;;;;4.25;3.75;;;;;;;;5074898;27;51581;-57
2022/09/19 03:33:41;;;;;;;;;3.00;3.00;;;;;;;;5079385;27;51163;-57
2022/09/19 03:36:09;;;;;;;;;3.50;3.25;;;;;;;;5074759;27;51240;-57
2022/09/19 03:38:35;;;;;;;;;4.00;3.00;;;;;;;;5073789;27;51834;-57
2022/09/19 03:41:00;;;;;;;;;6.00;4.25;;;;;;;;5075156;27;51082;-56
2022/09/19 03:43:29;;;;;;;;;1.25;1.25;;;;;;;;5075224;27;51132;-57
2022/09/19 03:45:54;;;;;;;;;3.00;3.00;;;;;;;;5075476;27;51123;-57
2022/09/19 03:48:20;;;;;;;;;2.50;2.50;;;;;;;;5072927;27;51795;-55
2022/09/19 03:50:46;;;;;;;;;6.00;4.75;;;;;;;;5075237;27;50831;-56
2022/09/19 03:53:11;;;;;;;;;4.75;4.75;;;;;;;;5075097;27;51231;-56
2022/09/19 03:55:44;;;;;;;;;3.50;3.25;;;;;;;;5095815;27;51270;-57
2022/09/19 03:58:12;;;;;;;;;3.50;3.50;;;;;;;;5088345;27;51393;-57
2022/09/19 04:00:38;;;;;;;;;3.75;3.00;;;;;;;;5080259;27;51108;-57
2022/09/19 04:03:03;;;;;;;;;4.00;4.00;;;;;;;;5078841;27;51059;-57
2022/09/19 04:05:28;;;;;;;;;3.50;3.50;;;;;;;;5087392;27;51103;-60
2022/09/19 04:07:54;;;;;;;;;4.00;4.00;;;;;;;;5081454;27;52223;-57
2022/09/19 04:10:20;;;;;;;;;5.00;4.00;;;;;;;;5088953;27;51228;-57
2022/09/19 04:12:45;;;;;;;;;3.00;3.00;;;;;;;;5079738;27;51123;-56
2022/09/19 04:15:10;;;;;;;;;3.00;3.00;;;;;;;;5083946;27;50919;-57
2022/09/19 04:17:36;;;;;;;;;4.00;4.00;;;;;;;;5077010;27;51841;-57
2022/09/19 04:20:01;;;;;;;;;3.00;3.00;;;;;;;;5080274;27;51175;-57
2022/09/19 04:22:26;;;;;;;;;3.00;3.00;;;;;;;;5072937;27;51203;-57
2022/09/19 04:24:52;;;;;;;;;4.00;4.00;;;;;;;;5081059;27;51913;-57
2022/09/19 04:27:17;;;;;;;;;4.50;4.50;;;;;;;;5086447;27;51863;-57
2022/09/19 04:29:43;;;;;;;;;2.75;2.50;;;;;;;;5079387;27;51097;-58
2022/09/19 04:32:09;;;;;;;;;3.50;3.25;;;;;;;;5073290;27;51179;-57
2022/09/19 04:34:34;;;;;;;;;5.00;4.00;;;;;;;;5080359;27;51108;-57
2022/09/19 04:37:02;;;;;;;;;4.00;4.00;;;;;;;;5075177;27;52290;-61
2022/09/19 04:39:27;;;;;;;;;5.00;4.00;;;;;;;;5087788;27;52562;-58
2022/09/19 04:41:53;;;;;;;;;4.25;3.00;;;;;;;;5093900;27;51104;-56
2022/09/19 04:44:20;;;;;;;;;5.25;4.75;;;;;;;;5081180;27;53389;-58
2022/09/19 04:46:46;;;;;;;;;5.00;5.00;;;;;;;;5076456;27;52308;-59
2022/09/19 04:49:13;;;;;;;;;3.75;3.75;;;;;;;;5077240;27;51803;-58
2022/09/19 04:51:38;;;;;;;;;4.00;4.00;;;;;;;;5077633;27;50991;-55
2022/09/19 04:54:05;;;;;;;;;5.50;5.50;;;;;;;;5081328;27;51273;-57
2022/09/19 04:56:30;;;;;;;;;5.50;5.00;;;;;;;;5080707;27;52018;-57
2022/09/19 04:58:58;;;;;;;;;4.75;4.00;;;;;;;;5082313;27;51063;-57
2022/09/19 05:01:24;;;;;;;;;6.25;6.25;;;;;;;;5080622;27;50938;-57
2022/09/19 05:03:49;;;;;;;;;4.00;4.00;;;;;;;;5092461;27;51057;-56
2022/09/19 05:06:15;;;;;;;;;4.00;4.00;;;;;;;;5077983;27;52127;-57
2022/09/19 05:08:40;;;;;;;;;4.25;4.25;;;;;;;;5081279;27;51156;-58
2022/09/19 05:11:06;;;;;;;;;4.25;4.00;;;;;;;;5073703;27;51106;-56
2022/09/19 05:13:33;;;;;;;;;5.00;5.00;;;;;;;;5077600;27;51903;-57
2022/09/19 05:16:02;;;;;;;;;6.00;5.25;;;;;;;;5082962;27;52157;-58
2022/09/19 05:18:28;;;;;;;;;5.00;4.50;;;;;;;;5074233;27;51262;-58
2022/09/19 05:20:54;;;;;;;;;5.00;4.50;;;;;;;;5071306;27;51271;-58
2022/09/19 05:23:23;;;;;;;;;5.25;4.50;;;;;;;;5073755;27;51342;-58
2022/09/19 05:25:52;;;;;;;;;4.75;4.75;;;;;;;;5075982;27;51285;-56
2022/09/19 05:28:19;;;;;;;;;5.00;5.00;;;;;;;;5088188;27;51101;-58
2022/09/19 05:30:49;;;;;;;;;6.50;6.00;;;;;;;;5079343;27;51457;-57
2022/09/19 05:33:20;;;;;;;;;6.00;6.00;;;;;;;;5075898;27;51145;-58
2022/09/19 05:35:45;;;;;;;;;4.75;4.00;;;;;;;;5077565;27;51806;-58
2022/09/19 05:38:10;;;;;;;;;6.25;6.00;;;;;;;;5085158;27;51103;-56
2022/09/19 05:40:36;;;;;;;;;10.00;8.75;;;;;;;;5085663;27;51329;-56
2022/09/19 05:43:03;;;;;;;;;6.75;6.75;;;;;;;;5076225;27;51197;-57
2022/09/19 05:45:28;;;;;;;;;6.00;6.00;;;;;;;;5074716;27;52335;-57
2022/09/19 05:48:04;;;;;;;;;7.00;7.00;;;;;;;;5071958;27;51184;-56
2022/09/19 05:50:29;;;;;;;;;7.50;7.00;;;;;;;;5072750;27;51138;-56
2022/09/19 05:55:38;;;;;;;;;12.00;12.00;;;;;;;;5075544;27;51024;-54
2022/09/19 05:58:06;;;;;;;;;11.75;9.50;;;;;;;;5071886;27;51033;-55
2022/09/19 06:00:31;;;;;;;;;12.50;9.25;;;;;;;;5093274;27;51088;-55
2022/09/19 06:02:57;;;;;;;;;13.75;11.00;;;;;;;;5074919;27;50906;-54
2022/09/19 06:05:23;;;;;;;;;10.50;9.25;;;;;;;;5076225;27;52468;-56
2022/09/19 06:07:49;;;;;;;;;7.00;7.00;;;;;;;;5070759;27;51107;-54
2022/09/19 06:10:14;;;;;;;;;8.00;8.00;;;;;;;;5085487;27;51336;-56
2022/09/19 06:12:39;;;;;;;;;8.00;7.75;;;;;;;;5079736;27;51286;-54
2022/09/19 06:15:05;;;;;;;;;6.25;6.25;;;;;;;;5083544;27;51158;-53
2022/09/19 06:17:30;;;;;;;;;7.25;6.50;;;;;;;;5073596;27;51214;-54
2022/09/19 06:19:55;;;;;;;;;7.25;7.00;;;;;;;;5078008;27;51138;-54
2022/09/19 06:22:21;;;;;;;;;7.50;6.25;;;;;;;;5086874;27;51419;-53
2022/09/19 06:24:46;;;;;;;;;7.00;6.00;;;;;;;;5080170;27;51928;-55
2022/09/19 06:27:12;;;;;;;;;5.75;5.75;;;;;;;;5080183;27;51635;-54
2022/09/19 06:29:37;;;;;;;;;6.25;6.25;;;;;;;;5084610;27;51259;-55
2022/09/19 06:32:03;;;;;;;;;7.00;7.00;;;;;;;;5072544;27;51120;-54
2022/09/19 06:34:28;;;;;;;;;6.75;6.25;;;;;;;;5082644;27;52210;-54
2022/09/19 06:36:53;;;;;;;;;7.75;6.75;;;;;;;;5071509;27;51320;-53
2022/09/19 06:39:19;;;;;;;;;10.25;9.75;;;;;;;;5073416;27;51107;-54
2022/09/19 06:41:47;;;;;;;;;5.50;5.50;;;;;;;;5082535;27;51048;-56
2022/09/19 06:44:12;;;;;;;;;7.00;7.00;;;;;;;;5085507;27;51927;-53
2022/09/19 06:46:38;;;;;;;;;10.00;9.75;;;;;;;;5072854;27;50973;-55
2022/09/19 06:49:03;;;;;;;;;7.25;7.25;;;;;;;;5072127;27;52684;-51
2022/09/19 06:51:29;;;;;;;;;8.25;8.00;;;;;;;;5072339;27;50951;-55
2022/09/19 06:53:54;;;;;;;;;11.50;9.75;;;;;;;;5073581;27;51120;-53
2022/09/19 06:56:19;;;;;;;;;7.25;7.25;;;;;;;;5084225;27;51378;-54
2022/09/19 06:58:44;;;;;;;;;11.00;10.00;;;;;;;;5073455;27;51132;-53
2022/09/19 07:01:10;;;;;;;;;9.25;8.25;;;;;;;;5073687;27;52687;-54
2022/09/19 07:03:35;;;;;;;;;10.00;10.00;;;;;;;;5078021;27;51923;-54
2022/09/19 07:06:01;;;;;;;;;8.33;8.33;;;;;;;;5076537;27;51087;-54
2022/09/19 07:08:26;;;;;;;;;7.33;7.33;;;;;;;;5075825;27;53152;-52
2022/09/19 07:10:51;;;;;;;;;8.00;6.33;;;;;;;;5076544;27;52014;-53
2022/09/19 07:13:17;;;;;;;;;10.00;9.00;;;;;;;;5080014;27;52300;-53
2022/09/19 07:15:43;;;;;;;;;9.00;7.00;;;;;;;;5076269;27;51859;-54
2022/09/19 07:18:10;;;;;;;;;5.67;5.67;;;;;;;;5077623;27;51277;-53
2022/09/19 07:20:36;;;;;;;;;7.33;7.00;;;;;;;;5079021;27;51510;-53
2022/09/19 07:23:03;;;;;;;;;8.33;7.00;;;;;;;;5073205;27;52368;-52
2022/09/19 07:25:29;;;;;;;;;7.00;7.00;;;;;;;;5077289;27;51132;-54
2022/09/19 07:27:58;;;;;;;;;8.67;7.67;;;;;;;;5076494;27;52387;-54
2022/09/19 07:30:23;;;;;;;;;7.67;7.00;;;;;;;;5080309;27;51414;-52
2022/09/19 07:32:48;;;;;;;;;10.33;10.33;;;;;;;;5086202;27;52185;-59
2022/09/19 07:35:14;;;;;;;;;7.67;7.00;;;;;;;;5079404;27;51108;-54
2022/09/19 07:37:39;;;;;;;;;7.67;7.67;;;;;;;;5080526;27;51104;-53
2022/09/19 07:40:05;;;;;;;;;9.67;9.00;;;;;;;;5088229;27;51282;-54
2022/09/19 07:42:30;;;;;;;;;6.00;6.00;;;;;;;;5088093;27;52929;-53
2022/09/19 07:44:55;;;;;;;;;9.00;7.00;;;;;;;;5082461;27;51083;-53
2022/09/19 07:47:27;;;;;;;;;7.33;7.00;;;;;;;;5079585;27;52151;-54
2022/09/19 07:49:54;;;;;;;;;10.33;9.33;;;;;;;;5077505;27;51130;-54
2022/09/19 07:52:19;;;;;;;;;9.67;8.00;;;;;;;;5078358;27;52117;-54
2022/09/19 07:54:44;;;;;;;;;7.00;6.33;;;;;;;;5085406;27;51111;-55
2022/09/19 07:57:10;;;;;;;;;4.33;4.33;;;;;;;;5083831;27;51124;-53
2022/09/19 07:59:35;;;;;;;;;3.33;3.33;;;;;;;;5081080;27;51333;-56
2022/09/19 08:02:00;;;;;;;;;4.00;4.00;;;;;;;;5083358;27;51805;-54
2022/09/19 08:04:27;;;;;;;;;3.00;3.00;;;;;;;;5088803;27;51113;-54
2022/09/19 08:06:52;;;;;;;;;6.00;5.00;;;;;;;;5092422;27;50926;-55
2022/09/19 08:09:18;;;;;;;;;11.33;10.33;;;;;;;;5087567;27;51126;-53
2022/09/19 08:11:43;;;;;;;;;5.00;5.00;;;;;;;;5090154;27;52078;-51
2022/09/19 08:14:09;;;;;;;;;4.00;3.00;;;;;;;;5085893;27;51073;-53
2022/09/19 08:16:34;;;;;;;;;3.67;3.67;;;;;;;;5089456;27;51325;-53
2022/09/19 08:18:59;;;;;;;;;4.33;3.00;;;;;;;;5081570;27;51465;-53
2022/09/19 08:21:25;;;;;;;;;4.00;4.00;;;;;;;;5086937;27;52293;-53
2022/09/19 08:23:50;;;;;;;;;3.67;3.33;;;;;;;;5088523;27;52129;-52
2022/09/19 08:26:16;;;;;;;;;3.00;3.00;;;;;;;;5079563;27;51186;-53
2022/09/19 08:28:42;;;;;;;;;4.00;3.00;;;;;;;;5077114;27;51460;-53
2022/09/19 08:31:07;;;;;;;;;3.33;1.33;;;;;;;;5079223;27;52067;-54
2022/09/19 08:33:32;;;;;;;;;5.33;4.00;;;;;;;;5078433;27;51049;-54
2022/09/19 08:35:58;;;;;;;;;1.00;1.00;;;;;;;;5074287;27;51595;-53
2022/09/19 08:38:23;;;;;;;;;1.67;1.67;;;;;;;;5084231;27;51403;-54
2022/09/19 08:40:51;;;;;;;;;1.00;1.00;;;;;;;;5090216;27;52098;-54
2022/09/19 08:43:48;;;;;;;;;0.00;0.00;;;;;;;;5078235;27;51417;-51
2022/09/19 08:46:15;;;;;;;;;0.33;0.33;;;;;;;;5062497;27;51125;-53
2022/09/19 08:49:03;;;;;;;;;1.00;1.00;;;;;;;;5087591;27;51234;-53
2022/09/19 08:51:55;;;;;;;;;1.00;1.00;;;;;;;;5077159;27;51381;-53
2022/09/19 08:54:32;;;;;;;;;3.00;1.67;;;;;;;;5083633;27;51221;-54
2022/09/19 08:56:59;;;;;;;;;2.00;1.00;;;;;;;;5088601;27;51107;-52
2022/09/19 08:59:26;;;;;;;;;0.00;0.00;;;;;;;;5091746;27;51365;-54
2022/09/19 09:01:57;;;;;;;;;0.00;0.00;;;;;;;;5084819;27;51263;-54
2022/09/19 09:04:23;;;;;;;;;3.00;1.33;;;;;;;;5085214;27;51130;-53
2022/09/19 09:06:57;;;;;;;;;0.00;0.00;;;;;;;;5086394;27;52453;-52
2022/09/19 09:09:23;;;;;;;;;0.00;0.00;;;;;;;;5076422;27;51299;-54
2022/09/19 09:12:07;;;;;;;;;1.00;1.00;;;;;;;;5072403;27;51146;-54
2022/09/19 09:14:36;;;;;;;;;1.00;0.67;;;;;;;;5073223;27;51005;-54
2022/09/19 09:17:25;;;;;;;;;0.00;0.00;;;;;;;;5073904;27;50989;-53
2022/09/19 09:20:01;;;;;;;;;1.00;1.00;;;;;;;;5089782;27;51132;-55
2022/09/19 09:22:30;;;;;;;;;0.33;0.33;;;;;;;;5089761;27;52054;-54
2022/09/19 09:25:16;;;;;;;;;0.00;0.00;;;;;;;;5076136;27;51096;-54
2022/09/19 09:27:47;;;;;;;;;0.33;0.33;;;;;;;;5078706;27;51001;-55
2022/09/19 09:30:16;;;;;;;;;0.00;0.00;;;;;;;;5086208;27;51455;-53
2022/09/19 09:32:45;;;;;;;;;0.00;0.00;;;;;;;;5083043;27;51287;-53
2022/09/19 09:35:13;;;;;;;;;1.00;0.00;;;;;;;;5072935;27;51191;-53
2022/09/19 09:37:54;;;;;;;;;1.00;1.00;;;;;;;;5071696;27;51072;-54
2022/09/19 09:43:08;;;;;;;;;0.67;0.33;;;;;;;;5090023;27;51146;-53
2022/09/19 09:45:44;;;;;;;;;0.00;0.00;;;;;;;;5086072;27;51045;-53
2022/09/19 09:48:16;;;;;;;;;0.67;0.00;;;;;;;;5087445;27;51150;-54
2022/09/19 09:50:43;;;;;;;;;0.00;0.00;;;;;;;;5084832;27;51154;-54
2022/09/19 09:53:23;;;;;;;;;0.33;0.33;;;;;;;;5080613;27;53073;-55
2022/09/19 09:56:15;;;;;;;;;0.00;0.00;;;;;;;;5083027;27;50947;-55
2022/09/19 09:58:59;;;;;;;;;0.00;0.00;;;;;;;;5072048;27;50885;-54
2022/09/19 10:04:29;;;;;;;;;0.00;0.00;;;;;;;;5073373;27;51418;-53
2022/09/19 10:07:10;;;;;;;;;1.00;0.00;;;;;;;;5075212;27;51169;-54
2022/09/19 10:09:37;;;;;;;;;0.67;0.67;;;;;;;;5079787;27;51212;-53
2022/09/19 10:12:08;;;;;;;;;0.33;0.00;;;;;;;;5073560;27;51162;-53
2022/09/19 10:14:35;;;;;;;;;0.00;0.00;;;;;;;;5071779;27;51116;-53
2022/09/19 10:17:01;;;;;;;;;0.00;0.00;;;;;;;;5083612;27;51231;-53
2022/09/19 10:19:30;;;;;;;;;0.00;0.00;;;;;;;;5072970;27;51119;-52
2022/09/19 10:21:56;;;;;;;;;0.00;0.00;;;;;;;;5072291;27;50922;-54
2022/09/19 10:24:40;;;;;;;;;0.00;0.00;;;;;;;;5076856;27;51251;-54
2022/09/19 10:27:11;;;;;;;;;0.00;0.00;;;;;;;;5078527;27;51179;-54
2022/09/19 10:29:47;;;;;;;;;0.00;0.00;;;;;;;;5088291;27;51106;-53
2022/09/19 10:32:17;;;;;;;;;0.00;0.00;;;;;;;;5072539;27;51260;-54
2022/09/19 10:34:43;;;;;;;;;1.67;1.67;;;;;;;;5071793;27;53423;-54
2022/09/19 10:37:12;;;;;;;;;0.00;0.00;;;;;;;;5075892;27;50995;-56
2022/09/19 10:39:44;;;;;;;;;0.00;0.00;;;;;;;;5085548;27;51205;-55
2022/09/19 10:42:19;;;;;;;;;1.00;1.00;;;;;;;;5079450;27;51034;-53
2022/09/19 10:44:52;;;;;;;;;1.00;1.00;;;;;;;;5085415;27;52566;-53
2022/09/19 10:47:18;;;;;;;;;0.00;0.00;;;;;;;;5090730;27;51033;-54
2022/09/19 10:49:47;;;;;;;;;0.00;0.00;;;;;;;;5082448;27;51885;-54
2022/09/19 10:52:20;;;;;;;;;0.00;0.00;;;;;;;;5087331;27;51138;-53
2022/09/19 10:54:45;;;;;;;;;0.00;0.00;;;;;;;;5078084;27;52064;-54
2022/09/19 10:57:32;;;;;;;;;0.67;0.67;;;;;;;;5078496;27;51131;-50
2022/09/19 11:00:02;;;;;;;;;0.00;0.00;;;;;;;;5077779;27;52272;-55
2022/09/19 11:02:28;;;;;;;;;0.00;0.00;;;;;;;;5087386;27;52016;-54
2022/09/19 11:04:55;;;;;;;;;0.33;0.33;;;;;;;;5086408;27;52083;-57
2022/09/19 11:07:31;;;;;;;;;0.00;0.00;;;;;;;;5083595;27;52186;-53
2022/09/19 11:10:01;;;;;;;;;0.00;0.00;;;;;;;;5089393;27;51111;-53
2022/09/19 11:12:29;;;;;;;;;0.00;0.00;;;;;;;;5087096;27;50967;-56
2022/09/19 11:14:55;;;;;;;;;0.00;0.00;;;;;;;;5092544;27;51932;-54
2022/09/19 11:17:39;;;;;;;;;0.00;0.00;;;;;;;;5081642;27;51257;-54
2022/09/19 11:20:17;;;;;;;;;0.00;0.00;;;;;;;;5083583;27;51154;-54
2022/09/19 11:22:48;;;;;;;;;2.00;1.00;;;;;;;;5087962;27;51103;-54
2022/09/19 11:25:16;;;;;;;;;0.00;0.00;;;;;;;;5087828;27;51272;-55
2022/09/19 11:27:51;;;;;;;;;1.00;1.00;;;;;;;;5088283;27;51172;-52
2022/09/19 11:30:24;;;;;;;;;1.33;1.33;;;;;;;;5087929;27;51091;-54
2022/09/19 11:33:09;;;;;;;;;0.33;0.00;;;;;;;;5088944;27;51274;-54
2022/09/19 11:35:42;;;;;;;;;1.00;1.00;;;;;;;;5090169;27;52293;-51
2022/09/19 11:38:07;;;;;;;;;0.00;0.00;;;;;;;;5089312;27;51108;-52
2022/09/19 11:40:32;;;;;;;;;0.00;0.00;;;;;;;;5092666;27;51051;-51
2022/09/19 11:43:00;;;;;;;;;0.00;0.00;;;;;;;;5088694;27;50799;-53
2022/09/19 11:45:29;;;;;;;;;2.00;1.33;;;;;;;;5089937;27;51188;-55
2022/09/19 11:48:06;;;;;;;;;0.00;0.00;;;;;;;;5089486;27;51203;-54
2022/09/19 11:50:50;;;;;;;;;0.00;0.00;;;;;;;;5092342;27;51191;-54
2022/09/19 11:53:17;;;;;;;;;1.67;1.67;;;;;;;;5087682;27;51934;-54
2022/09/19 11:55:58;;;;;;;;;0.00;0.00;;;;;;;;5091451;27;52374;-54
2022/09/19 11:58:34;;;;;;;;;0.00;0.00;;;;;;;;5088009;27;50961;-55
2022/09/19 12:01:12;;;;;;;;;1.00;0.33;;;;;;;;5087910;27;50928;-53
2022/09/19 12:03:52;;;;;;;;;0.67;0.00;;;;;;;;5092630;27;50885;-54
2022/09/19 12:06:47;;;;;;;;;2.00;0.67;;;;;;;;5088138;27;52005;-54
2022/09/19 12:09:19;;;;;;;;;2.00;2.00;;;;;;;;5085592;27;51114;-55
2022/09/19 12:11:49;;;;;;;;;0.00;0.00;;;;;;;;5089523;27;51607;-52
2022/09/19 12:14:19;;;;;;;;;1.00;0.00;;;;;;;;5090081;27;51191;-54
2022/09/19 12:16:46;;;;;;;;;3.67;3.00;;;;;;;;5091175;27;52027;-54
2022/09/19 12:19:16;;;;;;;;;0.00;0.00;;;;;;;;5087871;27;51058;-54
2022/09/19 12:21:53;;;;;;;;;1.67;0.00;;;;;;;;5090191;27;51190;-54
2022/09/19 12:27:30;;;;;;;;;0.00;0.00;;;;;;;;5088832;27;51526;-52
2022/09/19 12:30:08;;;;;;;;;0.00;0.00;;;;;;;;5089962;27;50893;-54
2022/09/19 12:32:37;;;;;;;;;0.00;0.00;;;;;;;;5089773;27;51174;-54
2022/09/19 12:35:07;;;;;;;;;0.00;0.00;;;;;;;;5091251;27;51313;-53
2022/09/19 12:37:54;;;;;;;;;2.00;1.67;;;;;;;;5088115;27;51478;-55
2022/09/19 12:40:28;;;;;;;;;2.00;2.00;;;;;;;;5088517;27;50820;-54
2022/09/19 12:43:17;;;;;;;;;2.00;2.00;;;;;;;;5089697;27;51026;-53
2022/09/19 12:46:09;;;;;;;;;0.33;0.33;;;;;;;;5089411;27;51098;-54
2022/09/19 12:48:37;;;;;;;;;1.00;0.00;;;;;;;;5086602;27;52982;-55
2022/09/19 12:51:08;;;;;;;;;1.00;1.00;;;;;;;;5086713;27;51157;-52
2022/09/19 12:53:59;;;;;;;;;1.00;1.00;;;;;;;;5090561;27;50842;-52
2022/09/19 12:56:35;;;;;;;;;1.33;1.00;;;;;;;;5062423;27;51317;-54
2022/09/19 12:59:06;;;;;;;;;1.33;1.00;;;;;;;;5086406;27;52843;-55
2022/09/19 13:01:37;;;;;;;;;2.00;1.00;;;;;;;;5090844;27;50926;-54
2022/09/19 13:04:05;;;;;;;;;1.00;1.00;;;;;;;;5087041;27;51073;-53
2022/09/19 13:06:33;;;;;;;;;2.00;1.00;;;;;;;;5089342;27;51882;-53
2022/09/19 13:09:05;;;;;;;;;1.33;1.00;;;;;;;;5085166;27;51219;-52
2022/09/19 13:11:36;;;;;;;;;4.00;3.67;;;;;;;;5088206;27;51141;-55
2022/09/19 13:14:11;;;;;;;;;1.00;1.00;;;;;;;;5090075;27;51649;-53
2022/09/19 13:23:29;;;;;;;;;0.00;0.00;;;;;;;;5091319;27;51169;-53
2022/09/19 13:24:57;;;;;;;;;1.00;1.00;;;;;;;;5088764;27;50898;-55
2022/09/19 13:27:23;;;;;;;;;2.33;2.33;;;;;;;;5089071;27;51265;-55
2022/09/19 13:29:50;;;;;;;;;2.33;1.33;;;;;;;;5090719;27;51217;-53
2022/09/19 13:32:21;;;;;;;;;3.00;2.00;;;;;;;;5087140;27;50992;-53
2022/09/19 13:35:00;;;;;;;;;1.00;1.00;;;;;;;;5089606;27;51202;-53
2022/09/19 13:37:25;;;;;;;;;1.00;1.00;;;;;;;;5087807;27;50882;-55
2022/09/19 13:39:53;;;;;;;;;1.00;1.00;;;;;;;;5090258;27;51257;-53
2022/09/19 13:42:32;;;;;;;;;2.00;2.00;;;;;;;;5091034;27;51150;-53
2022/09/19 13:45:17;;;;;;;;;2.00;2.00;;;;;;;;5088523;27;51238;-54
2022/09/19 13:47:45;;;;;;;;;1.33;1.00;;;;;;;;5087382;27;51130;-52
2022/09/19 13:50:20;;;;;;;;;2.33;2.00;;;;;;;;5086046;27;50965;-54
2022/09/19 13:52:51;;;;;;;;;0.33;0.33;;;;;;;;5085620;27;51044;-53
2022/09/19 13:55:29;;;;;;;;;2.00;1.00;;;;;;;;5090672;27;51175;-56
2022/09/19 13:58:14;;;;;;;;;0.00;0.00;;;;;;;;5084386;27;51205;-54
2022/09/19 14:00:43;;;;;;;;;1.33;1.33;;;;;;;;5081606;27;52755;-55
2022/09/19 14:03:30;;;;;;;;;0.00;0.00;;;;;;;;5086675;27;51153;-53
2022/09/19 14:06:20;;;;;;;;;1.00;1.00;;;;;;;;5087694;27;51273;-54
2022/09/19 14:08:47;;;;;;;;;2.33;2.00;;;;;;;;5083500;27;51318;-55
2022/09/19 14:11:15;;;;;;;;;3.00;2.00;;;;;;;;5084652;27;51904;-54
2022/09/19 14:13:40;;;;;;;;;1.00;1.00;;;;;;;;5090287;27;51128;-56
2022/09/19 14:16:09;;;;;;;;;1.00;1.00;;;;;;;;5082953;27;51515;-55
2022/09/19 14:18:35;;;;;;;;;1.00;1.00;;;;;;;;5088315;27;51171;-54
2022/09/19 14:21:02;;;;;;;;;2.00;1.00;;;;;;;;5087567;27;51056;-55
2022/09/19 14:23:32;;;;;;;;;0.00;0.00;;;;;;;;5081457;27;51203;-54
2022/09/19 14:26:13;;;;;;;;;1.00;1.00;;;;;;;;5085129;27;51275;-56
2022/09/19 14:28:58;;;;;;;;;1.00;1.00;;;;;;;;5090266;27;51080;-56
2022/09/19 14:31:52;;;;;;;;;2.00;1.00;;;;;;;;5085090;27;53237;-55
2022/09/19 14:34:21;;;;;;;;;1.00;1.00;;;;;;;;5076465;27;51225;-57
2022/09/19 14:36:48;;;;;;;;;2.00;2.00;;;;;;;;5084992;27;51154;-54
2022/09/19 14:39:13;;;;;;;;;1.00;1.00;;;;;;;;5085321;27;51148;-54
2022/09/19 14:41:40;;;;;;;;;1.00;1.00;;;;;;;;5085414;27;52956;-54
2022/09/19 14:44:05;;;;;;;;;1.33;1.00;;;;;;;;5087257;27;51158;-55
2022/09/19 14:46:41;;;;;;;;;1.00;0.00;;;;;;;;5089481;27;51249;-53
2022/09/19 14:49:29;;;;;;;;;0.67;0.67;;;;;;;;5087210;27;51114;-55
2022/09/19 14:52:05;;;;;;;;;1.00;1.00;;;;;;;;5081629;27;51750;-56
2022/09/19 14:54:37;;;;;;;;;1.00;1.00;;;;;;;;5085845;27;51158;-56
2022/09/19 14:57:03;;;;;;;;;0.00;0.00;;;;;;;;5084496;27;50960;-55
2022/09/19 14:59:30;;;;;;;;;3.00;2.00;;;;;;;;5078334;27;50919;-56
2022/09/19 15:02:04;;;;;;;;;0.00;0.00;;;;;;;;5084097;27;53338;-55
2022/09/19 15:04:31;;;;;;;;;0.67;0.67;;;;;;;;5084845;27;51574;-52
2022/09/19 15:06:57;;;;;;;;;2.00;2.00;;;;;;;;5075556;27;51099;-57
2022/09/19 15:09:25;;;;;;;;;0.67;0.67;;;;;;;;5070773;27;51401;-56
2022/09/19 15:11:51;;;;;;;;;3.00;3.00;;;;;;;;5090907;27;52281;-54
2022/09/19 15:14:19;;;;;;;;;3.00;3.00;;;;;;;;5074320;27;50906;-54
2022/09/19 15:16:44;;;;;;;;;1.00;1.00;;;;;;;;5077602;27;51108;-55